Time;durP1;ratioP1;P1;durP2;ratioP2;P2;SDS_P1;SDS_P2;PMS_P1;PMS_P2;Temp;Humidity;BMP_temperature;BMP_pressure;BME280_temperature;BME280_humidity;BME280_pressure;Samples;Min_cycle;Max_cycle;Signal;HPM_P1;HPM_P2
2022/12/17 13:08:18;;;;;;;4.97;2.67;;;29.00;2.70;29.10;96580.00;;;;4970826;28;20200;-62
2022/12/17 13:10:47;;;;;;;2.65;2.17;;;29.60;2.70;28.10;96578.00;;;;5033770;28;20611;-62
2022/12/17 13:13:33;;;;;;;2.90;2.22;;;28.90;3.00;28.90;96576.00;;;;5033486;28;20208;-62
2022/12/17 13:16:04;;;;;;;3.28;2.97;;;29.40;2.60;27.50;96575.00;;;;5033900;28;20280;-62
2022/12/17 13:18:38;;;;;;;2.88;2.67;;;28.30;2.70;27.40;96580.00;;;;5033841;28;20193;-62
2022/12/17 13:21:25;;;;;;;2.53;2.33;;;28.10;3.30;27.40;96587.00;;;;5033781;28;20299;-62
2022/12/17 13:23:53;;;;;;;2.83;2.63;;;28.00;3.40;27.70;96579.00;;;;5033422;28;20205;-62
2022/12/17 13:26:24;;;;;;;1.95;1.85;;;28.20;3.50;26.90;96577.00;;;;5033373;28;20246;-62
2022/12/17 13:29:11;;;;;;;3.50;2.85;;;27.70;3.50;28.40;96576.00;;;;5033435;28;20180;-62
2022/12/17 13:31:58;;;;;;;4.32;3.00;;;28.70;3.30;28.70;96580.00;;;;5033906;28;20577;-62
2022/12/17 13:34:42;;;;;;;2.63;2.42;;;29.20;3.30;27.10;96581.00;;;;5015658;28;20647;-62
2022/12/17 13:37:21;;;;;;;4.47;3.35;;;28.10;3.30;20.50;96566.00;;;;5033934;28;20184;-62
2022/12/17 13:40:00;;;;;;;3.60;3.35;;;23.90;4.00;17.30;96560.00;;;;5033697;28;20180;-61
2022/12/17 13:42:30;;;;;;;3.95;3.13;;;;;20.20;96561.00;;;;5033599;28;20216;-62
2022/12/17 13:44:58;;;;;;;12.82;5.22;;;21.40;8.50;19.20;96563.00;;;;5033091;28;20216;-62
2022/12/17 13:47:29;;;;;;;6.75;4.18;;;20.80;8.10;22.70;96578.00;;;;5033601;28;20550;-62
2022/12/17 13:50:00;;;;;;;4.18;3.88;;;23.20;7.30;21.70;96577.00;;;;5032997;28;20231;-61
2022/12/17 13:52:32;;;;;;;3.92;3.53;;;22.80;7.00;19.30;96588.00;;;;5032908;28;20586;-61
2022/12/17 13:55:09;;;;;;;4.80;3.13;;;20.80;8.50;16.70;96582.00;;;;5033100;28;20641;-62
2022/12/17 13:57:38;;;;;;;4.78;3.53;;;18.60;10.00;19.00;96584.00;;;;5034039;28;20189;-62
2022/12/17 14:00:06;;;;;;;3.67;3.30;;;19.80;10.10;17.90;96591.00;;;;5015324;28;20196;-61
2022/12/17 14:02:37;;;;;;;3.78;3.47;;;19.40;8.60;19.20;96598.00;;;;5032802;28;20216;-61
2022/12/17 14:05:22;;;;;;;6.50;3.97;;;20.50;8.60;17.60;96606.00;;;;5032953;28;20204;-61
2022/12/17 14:07:54;;;;;;;10.20;5.03;;;19.00;9.80;16.20;96604.00;;;;5033960;28;20187;-61
2022/12/17 14:10:22;;;;;;;4.70;3.33;;;17.90;10.60;17.40;96598.00;;;;5036941;28;20185;-61
2022/12/17 14:12:48;;;;;;;4.90;2.75;;;18.40;10.60;17.60;96602.00;;;;5036999;28;20189;-61
2022/12/17 14:15:25;;;;;;;3.47;3.20;;;19.00;9.70;15.80;96612.00;;;;5037260;28;20550;-61
2022/12/17 14:17:55;;;;;;;4.28;3.47;;;17.70;10.70;16.00;96620.00;;;;5038007;28;20181;-61
2022/12/17 14:20:28;;;;;;;5.03;4.15;;;17.60;11.30;16.60;96621.00;;;;5036815;28;20287;-61
2022/12/17 14:22:59;;;;;;;3.88;3.58;;;;;16.00;96617.00;;;;5036769;28;20196;-61
2022/12/17 14:25:31;;;;;;;3.83;3.53;;;;;14.00;96624.00;;;;5036864;28;20273;-62
2022/12/17 14:28:00;;;;;;;4.67;4.17;;;;;12.90;96628.00;;;;5019456;28;20663;-61
2022/12/17 14:30:37;;;;;;;4.63;4.20;;;14.80;35.40;12.30;96635.00;;;;5036648;28;20664;-61
2022/12/17 14:33:26;;;;;;;3.00;2.63;;;14.10;15.20;11.50;96633.00;;;;5036735;28;20181;-61
2022/12/17 14:36:00;;;;;;;5.70;3.70;;;13.40;16.40;11.90;96643.00;;;;5037019;28;20186;-60
2022/12/17 14:38:28;;;;;;;4.83;4.50;;;13.10;16.10;11.00;96652.00;;;;5037275;28;20185;-60
2022/12/17 14:42:24;;;;;;;4.47;3.10;;;12.70;17.00;11.50;96641.00;;;;5036515;28;20209;-60
2022/12/17 14:43:57;;;;;;;3.17;2.87;;;12.90;17.10;9.20;96644.00;;;;5036596;28;20323;-60
2022/12/17 14:46:24;;;;;;;2.87;2.67;;;11.30;18.60;9.50;96635.00;;;;5036775;28;20627;-60
2022/12/17 14:49:02;;;;;;;3.13;2.93;;;10.90;19.70;10.20;96642.00;;;;5037227;28;20196;-61
2022/12/17 14:51:35;;;;;;;6.93;4.33;;;11.50;19.00;9.70;96642.00;;;;5036449;28;20239;-61
2022/12/17 14:54:17;;;;;;;4.10;3.70;;;11.20;19.70;8.90;96641.00;;;;5036280;28;20571;-60
2022/12/17 14:56:46;;;;;;;3.80;2.83;;;10.50;20.00;8.30;96648.00;;;;5036831;28;20188;-60
2022/12/17 14:59:31;;;;;;;3.00;2.70;;;10.00;21.00;9.00;96664.00;;;;5036615;28;20660;-61
2022/12/17 15:02:04;;;;;;;3.93;3.60;;;10.20;20.90;8.30;96662.00;;;;5036136;28;20231;-61
2022/12/17 15:04:32;;;;;;;7.70;4.40;;;9.90;23.30;7.50;96678.00;;;;5036029;28;20215;-61
2022/12/17 15:07:01;;;;;;;5.77;4.27;;;9.30;24.60;6.10;96691.00;;;;5035990;28;20188;-60
2022/12/17 15:09:28;;;;;;;4.33;3.97;;;8.30;22.90;4.00;96691.00;;;;5036437;28;20659;-60
2022/12/17 15:11:56;;;;;;;12.77;3.67;;;6.40;27.20;3.20;96692.00;;;;5036194;28;20213;-60
2022/12/17 15:14:23;;;;;;;6.17;3.60;;;5.50;29.80;1.40;96693.00;;;;5036149;28;20555;-60
2022/12/17 15:16:50;;;;;;;6.70;4.80;;;3.80;34.10;0.40;96688.00;;;;5035870;28;20201;-60
2022/12/17 15:19:17;;;;;;;2.43;2.03;;;2.60;38.30;-0.30;96692.00;;;;5036294;28;20185;-59
2022/12/17 15:21:44;;;;;;;6.33;5.30;;;1.70;42.00;-0.70;96692.00;;;;5035034;28;20217;-60
2022/12/17 15:24:20;;;;;;;5.93;4.63;;;1.10;45.10;-1.10;96702.00;;;;5035738;28;20191;-60
2022/12/17 15:26:48;;;;;;;5.53;5.00;;;0.60;47.30;-1.00;96690.00;;;;5036272;28;20527;-60
2022/12/17 15:29:16;;;;;;;5.27;4.20;;;0.50;47.70;-0.90;96699.00;;;;5035688;28;20219;-59
2022/12/17 15:31:43;;;;;;;4.93;3.47;;;0.50;47.40;-0.90;96695.00;;;;5036246;28;20597;-59
2022/12/17 15:34:11;;;;;;;6.00;3.77;;;0.40;47.10;-1.00;96694.00;;;;5035983;28;20275;-60
2022/12/17 15:36:38;;;;;;;3.67;3.30;;;0.40;47.20;-1.30;96707.00;;;;5035593;28;20277;-61
2022/12/17 15:39:06;;;;;;;3.43;3.00;;;0.20;47.20;-1.60;96711.00;;;;5035467;28;20677;-61
2022/12/17 15:44:19;;;;;;;5.60;3.90;;;-0.30;48.10;-2.00;96715.00;;;;5035546;28;20185;-60
2022/12/17 15:46:46;;;;;;;6.97;4.67;;;-0.70;49.20;-2.40;96725.00;;;;5035425;28;20192;-60
2022/12/17 15:49:13;;;;;;;8.37;5.33;;;-1.00;51.80;-2.40;96725.00;;;;5035596;28;20189;-59
2022/12/17 15:51:40;;;;;;;5.20;4.67;;;-1.10;52.90;-2.50;96720.00;;;;5035165;28;20217;-60
2022/12/17 15:54:07;;;;;;;7.10;5.33;;;-1.20;53.90;-2.50;96712.00;;;;5035400;28;20231;-60
2022/12/17 15:56:36;;;;;;;12.33;4.80;;;-1.20;54.60;-2.40;96716.00;;;;5035252;28;20655;-60
2022/12/17 15:59:03;;;;;;;8.57;4.57;;;-1.20;54.30;-2.50;96722.00;;;;5035570;28;20270;-60
2022/12/17 16:01:30;;;;;;;4.97;4.23;;;-1.20;54.20;-2.60;96723.00;;;;5035537;28;20212;-60
2022/12/17 16:03:58;;;;;;;7.23;5.50;;;-1.20;53.90;-2.60;96731.00;;;;5035178;28;20194;-59
2022/12/17 16:06:25;;;;;;;8.67;7.10;;;-1.40;53.90;-2.90;96729.00;;;;5035082;28;20199;-59
2022/12/17 16:08:52;;;;;;;10.67;7.00;;;-1.60;54.50;-3.10;96732.00;;;;5035056;28;20196;-61
2022/12/17 16:11:19;;;;;;;8.87;6.90;;;-1.70;55.70;-3.10;96730.00;;;;5035374;28;20686;-60
2022/12/17 16:13:53;;;;;;;7.97;6.70;;;-1.70;55.40;-3.20;96740.00;;;;5034832;28;20220;-60
2022/12/17 16:16:21;;;;;;;16.03;9.83;;;-1.80;55.80;-3.30;96741.00;;;;5034782;28;20215;-60
2022/12/17 16:18:48;;;;;;;9.30;7.57;;;-1.90;55.80;-3.30;96740.00;;;;5034636;28;20203;-60
2022/12/17 16:21:15;;;;;;;17.90;6.53;;;-2.00;55.80;-3.70;96734.00;;;;5034731;28;20215;-60
2022/12/17 16:23:42;;;;;;;7.00;6.23;;;-2.30;56.40;-3.90;96726.00;;;;5034593;28;20188;-60
2022/12/17 16:26:11;;;;;;;8.17;6.80;;;-2.40;57.20;-4.00;96733.00;;;;5034882;28;20624;-60
2022/12/17 16:28:39;;;;;;;16.40;8.67;;;-2.60;58.00;-3.90;96724.00;;;;5017612;28;20660;-60
2022/12/17 16:31:11;;;;;;;9.40;6.77;;;-2.60;58.70;-4.10;96721.00;;;;5034632;28;20217;-60
2022/12/17 16:33:41;;;;;;;13.93;8.33;;;-2.70;59.50;-4.10;96726.00;;;;5034147;28;20190;-60
2022/12/17 16:36:12;;;;;;;5.57;5.07;;;-2.80;59.70;-4.30;96727.00;;;;5034342;28;20196;-60
2022/12/17 16:38:44;;;;;;;5.93;5.33;;;-2.90;60.00;-4.30;96720.00;;;;5034348;28;20179;-59
2022/12/17 16:41:12;;;;;;;7.93;5.60;;;-3.00;59.50;-4.40;96727.00;;;;5034644;28;20239;-60
2022/12/17 16:43:40;;;;;;;3.43;3.23;;;-3.10;60.30;-4.40;96728.00;;;;5034181;28;20189;-60
2022/12/17 16:46:26;;;;;;;8.83;6.20;;;-3.10;60.00;-4.50;96732.00;;;;5034335;28;20218;-60
2022/12/17 16:48:53;;;;;;;9.97;5.67;;;-3.10;59.10;-4.60;96721.00;;;;5034148;28;20598;-59
2022/12/17 16:51:24;;;;;;;8.57;5.80;;;-3.20;59.50;-4.60;96725.00;;;;5034427;28;20718;-60
2022/12/17 16:53:51;;;;;;;9.63;5.93;;;-3.20;59.30;-4.60;96741.00;;;;5034707;28;20194;-61
2022/12/17 16:56:21;;;;;;;11.93;8.13;;;-3.30;59.40;-4.80;96749.00;;;;5033934;28;20190;-60
2022/12/17 16:58:49;;;;;;;5.53;5.03;;;-3.30;59.70;-4.90;96729.00;;;;5033956;28;20202;-61
2022/12/17 17:01:21;;;;;;;8.20;7.37;;;-3.50;59.70;-5.10;96732.00;;;;5034945;28;20221;-60
2022/12/17 17:03:49;;;;;;;7.83;7.10;;;-3.70;60.80;-4.90;96728.00;;;;5033805;28;20222;-61
2022/12/17 17:06:17;;;;;;;7.93;7.23;;;-3.70;62.10;-5.00;96720.00;;;;5034264;28;20380;-60
2022/12/17 17:08:45;;;;;;;23.10;9.60;;;-3.70;62.90;-4.90;96740.00;;;;5016761;28;20210;-61
2022/12/17 17:11:15;;;;;;;10.30;7.63;;;-3.60;63.00;-5.10;96743.00;;;;5033643;28;20221;-60
2022/12/17 17:13:43;;;;;;;7.07;6.37;;;-3.70;62.50;-5.10;96745.00;;;;5034122;28;20179;-60
2022/12/17 17:16:11;;;;;;;9.07;6.80;;;-3.70;62.40;-5.10;96736.00;;;;5033530;28;20225;-60
2022/12/17 17:18:39;;;;;;;3.90;3.63;;;-3.70;62.30;-5.20;96746.00;;;;5033560;28;20187;-60
2022/12/17 17:21:26;;;;;;;7.53;6.80;;;-3.80;62.10;-5.40;96753.00;;;;5033623;28;20223;-60
2022/12/17 17:23:57;;;;;;;8.47;5.50;;;-3.90;62.20;-5.50;96753.00;;;;5034092;28;20189;-60
2022/12/17 17:26:25;;;;;;;6.00;5.27;;;-4.10;62.60;-5.50;96749.00;;;;5033693;28;20209;-60
2022/12/17 17:28:53;;;;;;;9.93;7.63;;;-4.20;62.40;-5.80;96757.00;;;;5015709;28;20540;-60
2022/12/17 17:31:21;;;;;;;7.17;6.57;;;-4.40;63.20;-5.90;96744.00;;;;5033228;28;20211;-60
2022/12/17 17:33:51;;;;;;;8.03;7.33;;;-4.50;64.30;-5.90;96755.00;;;;5033773;28;20198;-61
2022/12/17 17:36:21;;;;;;;9.80;7.07;;;-4.50;67.10;-5.70;96753.00;;;;5033668;28;20174;-60
2022/12/17 17:38:51;;;;;;;11.70;7.53;;;-4.30;66.30;-5.70;96762.00;;;;5033894;28;20543;-61
2022/12/17 17:41:22;;;;;;;4.53;4.13;;;-4.40;65.00;-5.80;96764.00;;;;5033380;28;20687;-60
2022/12/17 17:43:54;;;;;;;4.83;4.47;;;-4.50;65.10;-5.80;96750.00;;;;5034029;28;20220;-60
2022/12/17 17:46:21;;;;;;;3.80;3.50;;;-4.50;65.30;-5.80;96764.00;;;;5033592;28;20183;-60
2022/12/17 17:48:51;;;;;;;4.03;3.73;;;-4.40;65.10;-5.80;96765.00;;;;5033176;28;20186;-60
2022/12/17 17:51:22;;;;;;;7.57;4.37;;;-4.40;67.50;-5.90;96756.00;;;;5033022;28;20261;-61
2022/12/17 17:53:51;;;;;;;8.23;5.67;;;-4.40;71.70;-5.60;96757.00;;;;5033704;28;20227;-60
2022/12/17 17:56:22;;;;;;;6.90;5.63;;;-4.40;65.20;-5.80;96756.00;;;;5033205;28;20189;-62
2022/12/17 17:58:52;;;;;;;9.53;6.53;;;-4.40;66.00;-5.70;96756.00;;;;5033923;28;20188;-61
2022/12/17 18:01:22;;;;;;;7.57;6.33;;;-4.40;66.80;-5.70;96754.00;;;;5032959;28;20209;-61
2022/12/17 18:03:51;;;;;;;9.57;6.33;;;-4.40;65.80;-5.70;96747.00;;;;5033045;28;20286;-61
2022/12/17 18:06:20;;;;;;;12.50;7.87;;;-4.40;65.40;-5.70;96745.00;;;;5033045;28;20195;-61
2022/12/17 18:08:48;;;;;;;6.07;5.57;;;-4.40;64.90;-5.70;96742.00;;;;5033000;28;20197;-61
2022/12/17 18:11:18;;;;;;;6.27;5.67;;;-4.40;64.40;-5.70;96742.00;;;;5033007;28;20573;-61
2022/12/17 18:13:56;;;;;;;12.60;8.40;;;-4.40;64.70;-5.70;96741.00;;;;5033279;28;20187;-59
2022/12/17 18:16:27;;;;;;;9.53;7.43;;;-4.40;63.60;-5.90;96754.00;;;;5016314;28;20701;-60
2022/12/17 18:18:58;;;;;;;10.07;5.63;;;-4.50;62.00;-6.00;96754.00;;;;5033370;28;20545;-60
2022/12/17 18:21:28;;;;;;;8.00;5.83;;;-4.70;62.30;-6.00;96758.00;;;;5032949;28;20204;-59
2022/12/17 18:23:58;;;;;;;9.00;8.10;;;-4.70;62.00;-6.40;96761.00;;;;5033089;28;20193;-61
2022/12/17 18:26:27;;;;;;;9.57;8.60;;;-4.90;60.40;-6.50;96772.00;;;;5032809;28;20224;-60
2022/12/17 18:28:54;;;;;;;9.10;7.43;;;-5.00;61.20;-6.40;96771.00;;;;5032790;28;20193;-60
2022/12/17 18:31:25;;;;;;;8.33;6.13;;;-5.10;61.20;-6.50;96773.00;;;;5032762;28;20211;-60
2022/12/17 18:33:56;;;;;;;7.47;6.77;;;-5.20;62.60;-6.60;96758.00;;;;5032822;28;20193;-59
2022/12/17 18:36:26;;;;;;;10.10;7.83;;;-5.20;62.50;-6.50;96780.00;;;;5032990;28;20204;-59
2022/12/17 18:38:57;;;;;;;12.30;9.13;;;-5.10;63.10;-6.60;96776.00;;;;5033355;28;20178;-60
2022/12/17 18:44:09;;;;;;;9.33;7.63;;;-5.20;62.70;-6.70;96777.00;;;;5032206;28;20233;-60
2022/12/17 18:46:36;;;;;;;21.53;6.90;;;-5.30;63.50;-6.50;96787.00;;;;5032746;28;20192;-60
2022/12/17 18:49:08;;;;;;;15.73;9.27;;;-5.20;64.00;-6.70;96788.00;;;;5033155;28;20552;-60
2022/12/17 18:51:38;;;;;;;12.63;9.27;;;-5.30;63.90;-6.70;96789.00;;;;5032475;28;20220;-60
2022/12/17 18:54:07;;;;;;;10.73;8.23;;;-5.30;63.60;-6.80;96798.00;;;;5032779;28;20193;-60
2022/12/17 18:56:36;;;;;;;19.23;8.50;;;-5.30;63.60;-6.80;96798.00;;;;5035212;28;20220;-61
2022/12/17 18:59:04;;;;;;;10.77;7.57;;;-5.40;63.60;-6.70;96799.00;;;;5036731;28;20185;-59
2022/12/17 19:01:34;;;;;;;9.53;6.40;;;-5.40;63.90;-6.60;96797.00;;;;5036540;28;20213;-60
2022/12/17 19:04:05;;;;;;;9.13;7.43;;;-5.30;63.80;-6.60;96798.00;;;;5036286;28;20189;-60
2022/12/17 19:06:34;;;;;;;8.80;7.60;;;-5.30;63.60;-6.80;96806.00;;;;5036592;28;20539;-59
2022/12/17 19:09:03;;;;;;;11.60;6.37;;;-5.40;62.50;-6.90;96813.00;;;;5036165;28;20192;-59
2022/12/17 19:11:35;;;;;;;7.63;7.03;;;-5.50;62.80;-7.00;96819.00;;;;5036504;28;20573;-60
2022/12/17 19:14:02;;;;;;;13.70;9.53;;;-5.60;62.50;-7.10;96824.00;;;;5036220;28;20189;-60
2022/12/17 19:16:30;;;;;;;11.23;6.10;;;-5.70;62.30;-7.10;96817.00;;;;5036012;28;20710;-60
2022/12/17 19:19:00;;;;;;;15.93;6.93;;;-5.70;61.90;-7.10;96805.00;;;;5036502;28;20189;-60
2022/12/17 19:21:29;;;;;;;10.13;7.77;;;-5.70;61.90;-7.20;96816.00;;;;5036295;28;20216;-60
2022/12/17 19:24:01;;;;;;;6.70;6.03;;;-5.70;62.40;-7.00;96823.00;;;;5035905;28;20196;-59
2022/12/17 19:26:29;;;;;;;14.73;7.57;;;-5.80;62.90;-7.00;96836.00;;;;5035866;28;20173;-60
2022/12/17 19:28:58;;;;;;;7.90;5.57;;;-5.70;63.20;-7.00;96835.00;;;;5035854;28;20637;-60
2022/12/17 19:31:30;;;;;;;26.67;9.53;;;-5.70;62.20;-7.10;96835.00;;;;5018383;28;20217;-60
2022/12/17 19:34:00;;;;;;;11.70;6.80;;;-5.70;63.30;-7.20;96834.00;;;;5035771;28;20268;-61
2022/12/17 19:36:32;;;;;;;13.13;6.97;;;-5.80;61.80;-7.30;96822.00;;;;5035595;28;20223;-61
2022/12/17 19:39:02;;;;;;;8.63;7.83;;;-5.80;61.80;-7.20;96830.00;;;;5035786;28;20177;-60
2022/12/17 19:41:31;;;;;;;10.60;6.93;;;-5.90;61.90;-7.40;96847.00;;;;5036075;28;20211;-60
2022/12/17 19:44:01;;;;;;;9.30;6.27;;;-6.00;61.70;-7.40;96854.00;;;;5035558;28;20181;-60
2022/12/17 19:46:31;;;;;;;13.27;6.40;;;-6.00;61.50;-7.40;96853.00;;;;5036049;28;20197;-60
2022/12/17 19:48:58;;;;;;;4.43;4.03;;;-6.10;61.10;-7.50;96846.00;;;;5035476;28;20247;-60
2022/12/17 19:51:29;;;;;;;10.17;6.37;;;-6.20;62.10;-7.40;96844.00;;;;5035575;28;20217;-60
2022/12/17 19:53:57;;;;;;;7.17;5.83;;;-6.10;64.40;-7.40;96828.00;;;;5035735;28;20181;-60
2022/12/17 19:56:27;;;;;;;10.10;7.23;;;-6.10;63.20;-7.50;96838.00;;;;5035185;28;20223;-60
2022/12/17 19:58:59;;;;;;;14.27;5.87;;;-6.10;62.20;-7.50;96835.00;;;;5035283;28;20201;-60
2022/12/17 20:01:29;;;;;;;5.33;4.83;;;-6.20;62.20;-7.40;96831.00;;;;5035502;28;20215;-60
2022/12/17 20:03:56;;;;;;;4.60;4.23;;;-6.10;63.00;-7.50;96837.00;;;;5035110;28;20193;-61
2022/12/17 20:06:27;;;;;;;7.23;4.50;;;-6.10;63.30;-7.50;96831.00;;;;5034920;28;20188;-60
2022/12/17 20:08:57;;;;;;;7.90;4.03;;;-6.20;63.90;-7.50;96837.00;;;;5035013;28;20193;-60
2022/12/17 20:11:33;;;;;;;4.10;3.80;;;-6.10;63.60;-7.40;96827.00;;;;5034914;28;20238;-60
2022/12/17 20:14:03;;;;;;;4.63;3.37;;;-6.10;63.80;-7.50;96839.00;;;;5034983;28;20181;-60
2022/12/17 20:16:33;;;;;;;7.17;5.77;;;-6.10;64.70;-7.50;96832.00;;;;5035544;28;20702;-60
2022/12/17 20:19:01;;;;;;;9.30;6.03;;;-6.10;64.50;-7.50;96837.00;;;;5034831;28;20189;-61
2022/12/17 20:21:29;;;;;;;8.77;6.67;;;-6.20;63.80;-7.80;96832.00;;;;5034695;28;20205;-60
2022/12/17 20:23:57;;;;;;;4.73;4.33;;;-6.30;62.60;-7.90;96839.00;;;;5034728;28;20213;-60
2022/12/17 20:26:25;;;;;;;4.80;4.13;;;-6.50;62.10;-7.70;96829.00;;;;5035354;28;20193;-60
2022/12/17 20:28:54;;;;;;;17.83;6.13;;;-6.30;62.90;-7.70;96822.00;;;;5034680;28;20217;-60
2022/12/17 20:31:22;;;;;;;9.53;5.27;;;-6.30;62.80;-7.80;96827.00;;;;5034840;28;20634;-60
2022/12/17 20:33:49;;;;;;;6.33;5.73;;;-6.40;63.10;-7.80;96817.00;;;;5034558;28;20544;-60
2022/12/17 20:36:19;;;;;;;8.97;7.17;;;-6.30;63.40;-7.80;96827.00;;;;5034579;28;20225;-60
2022/12/17 20:38:46;;;;;;;12.23;8.03;;;-6.40;63.00;-7.90;96830.00;;;;5034890;28;20197;-60
2022/12/17 20:41:18;;;;;;;10.77;5.27;;;-6.40;62.90;-7.90;96819.00;;;;5034322;28;20274;-60
2022/12/17 20:43:47;;;;;;;4.93;4.53;;;-6.50;63.30;-7.70;96826.00;;;;5034375;28;20185;-60
2022/12/17 20:46:14;;;;;;;8.90;4.13;;;-6.50;63.50;-7.80;96821.00;;;;5034308;28;20200;-60
2022/12/17 20:48:44;;;;;;;16.37;5.43;;;-6.40;63.30;-7.70;96834.00;;;;5035020;28;20189;-60
2022/12/17 20:51:14;;;;;;;8.27;7.17;;;-6.40;63.60;-7.70;96842.00;;;;5034570;28;20220;-61
2022/12/17 20:53:42;;;;;;;7.80;6.73;;;-6.40;63.00;-7.80;96839.00;;;;5034460;28;20181;-60
2022/12/17 20:56:12;;;;;;;3.10;2.80;;;-6.40;63.60;-7.70;96824.00;;;;5034011;28;20213;-60
2022/12/17 20:58:41;;;;;;;4.90;4.27;;;-6.40;64.50;-7.80;96813.00;;;;5016901;28;20195;-60
2022/12/17 21:01:11;;;;;;;11.27;5.03;;;-6.40;64.40;-7.80;96828.00;;;;5034207;28;20225;-60
2022/12/17 21:03:39;;;;;;;7.90;4.30;;;-6.40;65.20;-7.90;96820.00;;;;5034240;28;20193;-61
2022/12/17 21:06:09;;;;;;;3.63;3.33;;;-6.50;63.30;-7.80;96831.00;;;;5034169;28;20536;-60
2022/12/17 21:08:37;;;;;;;5.20;4.70;;;-6.40;64.20;-7.90;96829.00;;;;5016662;28;20201;-61
2022/12/17 21:11:05;;;;;;;8.23;4.77;;;-6.50;65.00;-8.00;96826.00;;;;5034094;28;20212;-60
2022/12/17 21:13:34;;;;;;;7.07;4.73;;;-6.50;66.50;-8.20;96828.00;;;;5034080;28;20219;-62
2022/12/17 21:16:06;;;;;;;3.33;3.13;;;-6.70;64.90;-8.20;96823.00;;;;5033729;28;20212;-61
2022/12/17 21:18:34;;;;;;;14.83;6.43;;;-6.70;65.70;-8.20;96825.00;;;;5033211;28;20173;-61
2022/12/17 21:21:04;;;;;;;8.10;5.47;;;-6.60;71.60;-8.20;96823.00;;;;5034027;28;20220;-61
2022/12/17 21:23:33;;;;;;;7.40;5.03;;;-6.80;62.80;-8.20;96821.00;;;;5034331;28;20182;-60
2022/12/17 21:26:03;;;;;;;8.50;5.00;;;-6.80;63.20;-8.20;96826.00;;;;5033815;28;20192;-60
2022/12/17 21:28:32;;;;;;;8.20;5.00;;;-6.80;63.70;-8.10;96824.00;;;;5033797;28;20235;-60
2022/12/17 21:31:00;;;;;;;6.90;4.27;;;-6.80;65.40;-8.20;96816.00;;;;5033595;28;20228;-60
2022/12/17 21:33:29;;;;;;;6.40;4.87;;;-6.80;67.30;-8.10;96817.00;;;;5034029;28;20304;-60
2022/12/17 21:36:00;;;;;;;5.77;4.67;;;-6.80;66.70;-8.10;96805.00;;;;5016785;28;20228;-61
2022/12/17 21:38:28;;;;;;;4.27;3.63;;;-6.70;64.70;-8.20;96811.00;;;;5033394;28;20188;-61
2022/12/17 21:40:56;;;;;;;6.10;5.47;;;-6.70;64.60;-8.50;96822.00;;;;5033305;28;20213;-61
2022/12/17 21:43:23;;;;;;;3.97;3.67;;;-6.90;62.90;-8.50;96825.00;;;;5033552;28;20196;-62
2022/12/17 21:45:57;;;;;;;12.07;5.43;;;-7.00;63.40;-8.40;96839.00;;;;5033304;28;20649;-59
2022/12/17 21:48:24;;;;;;;6.40;5.80;;;-7.00;63.70;-8.50;96842.00;;;;5033419;28;20252;-61
2022/12/17 21:50:53;;;;;;;9.00;6.63;;;-7.10;62.50;-8.70;96848.00;;;;5033089;28;20683;-59
2022/12/17 21:53:21;;;;;;;4.70;4.27;;;-7.20;62.60;-8.50;96834.00;;;;5034374;28;20204;-60
2022/12/17 21:55:50;;;;;;;14.57;6.63;;;-7.10;63.60;-8.40;96836.00;;;;5033173;28;20213;-61
2022/12/17 21:58:18;;;;;;;3.90;3.47;;;-7.10;64.40;-8.40;96839.00;;;;5033118;28;20189;-59
2022/12/17 22:00:45;;;;;;;5.47;4.07;;;-7.00;64.00;-8.40;96847.00;;;;5033022;28;20204;-60
2022/12/17 22:03:12;;;;;;;6.53;4.83;;;-7.00;63.90;-8.50;96848.00;;;;5033124;28;20219;-60
2022/12/17 22:05:39;;;;;;;5.10;4.13;;;-7.00;63.40;-8.50;96836.00;;;;5034110;28;20196;-60
2022/12/17 22:08:07;;;;;;;17.00;5.87;;;-7.10;64.40;-8.40;96851.00;;;;5033080;28;20185;-60
2022/12/17 22:10:34;;;;;;;4.60;4.20;;;-7.00;64.50;-8.40;96852.00;;;;5032943;28;20219;-61
2022/12/17 22:15:46;;;;;;;4.03;3.50;;;-7.00;64.40;-8.30;96845.00;;;;5032919;28;20204;-61
2022/12/17 22:18:13;;;;;;;6.73;4.83;;;-7.00;64.40;-8.20;96851.00;;;;5033012;28;20192;-60
2022/12/17 22:20:40;;;;;;;7.30;5.20;;;-6.90;63.90;-8.20;96842.00;;;;5033422;28;20287;-60
2022/12/17 22:23:08;;;;;;;3.90;3.57;;;-6.80;63.90;-8.20;96853.00;;;;5015245;28;20202;-59
2022/12/17 22:25:37;;;;;;;4.20;3.83;;;-6.80;63.90;-8.30;96852.00;;;;5032858;28;20241;-60
2022/12/17 22:28:05;;;;;;;5.93;4.37;;;-6.90;63.60;-8.40;96848.00;;;;5032875;28;20197;-60
2022/12/17 22:33:17;;;;;;;7.37;5.83;;;-7.00;63.30;-8.60;96829.00;;;;5037164;28;20181;-59
2022/12/17 22:35:45;;;;;;;9.53;5.00;;;-7.10;62.20;-8.70;96832.00;;;;5036727;28;20216;-60
2022/12/17 22:38:13;;;;;;;9.67;3.67;;;-7.20;62.30;-8.80;96830.00;;;;5037015;28;20217;-62
2022/12/17 22:40:40;;;;;;;2.97;2.77;;;-7.40;62.40;-9.20;96837.00;;;;5037343;28;20212;-60
2022/12/17 22:45:59;;;;;;;3.40;2.73;;;-7.60;63.60;-9.30;96846.00;;;;5036839;28;20189;-60
2022/12/17 22:48:28;;;;;;;3.43;3.03;;;-7.80;63.70;-9.40;96850.00;;;;5036856;28;20205;-60
2022/12/17 22:50:55;;;;;;;6.87;3.53;;;-7.90;64.00;-9.50;96836.00;;;;5036612;28;20299;-60
2022/12/17 22:53:24;;;;;;;4.80;2.83;;;-8.00;64.80;-9.30;96839.00;;;;5036816;28;20667;-60
2022/12/17 22:55:52;;;;;;;3.33;3.03;;;-7.90;65.60;-9.30;96841.00;;;;5036503;28;20227;-59
2022/12/17 22:58:19;;;;;;;5.27;3.53;;;-7.90;65.60;-9.20;96841.00;;;;5036367;28;20199;-61
2022/12/17 23:00:46;;;;;;;4.67;3.57;;;-7.80;65.80;-9.20;96850.00;;;;5036252;28;20213;-61
2022/12/17 23:03:14;;;;;;;5.53;3.03;;;;;-9.10;96855.00;;;;5036553;28;20195;-61
2022/12/17 23:05:41;;;;;;;3.17;2.87;;;-7.70;64.70;-9.10;96838.00;;;;5036529;28;20195;-61
2022/12/17 23:08:08;;;;;;;4.53;3.13;;;-7.60;65.00;-9.10;96840.00;;;;5036434;28;20647;-61
2022/12/17 23:10:37;;;;;;;3.50;3.20;;;-7.70;64.60;-9.10;96849.00;;;;5036454;28;20266;-60
2022/12/17 23:13:04;;;;;;;4.07;2.87;;;-7.70;64.60;-8.90;96842.00;;;;5036142;28;20219;-61
2022/12/17 23:15:35;;;;;;;6.87;4.07;;;-7.60;64.40;-9.00;96846.00;;;;5036039;28;20197;-61
2022/12/17 23:18:06;;;;;;;4.73;3.87;;;-7.60;64.10;-9.00;96847.00;;;;5036621;28;20243;-62
2022/12/17 23:20:34;;;;;;;2.43;2.33;;;-7.50;64.40;-9.30;96848.00;;;;5036459;28;20208;-60
2022/12/17 23:23:02;;;;;;;3.43;3.13;;;-7.70;62.70;-9.40;96843.00;;;;5036037;28;20193;-60
2022/12/17 23:25:29;;;;;;;3.63;3.33;;;-7.80;63.20;-9.30;96835.00;;;;5035859;28;20189;-60
2022/12/17 23:27:57;;;;;;;5.53;3.77;;;-7.80;63.30;-9.50;96844.00;;;;5035866;28;20207;-59
2022/12/17 23:30:25;;;;;;;4.60;4.17;;;-8.00;63.00;-9.50;96858.00;;;;5035705;28;20661;-62
2022/12/17 23:32:52;;;;;;;4.63;2.60;;;-8.00;63.20;-9.40;96854.00;;;;5035999;28;20216;-61
2022/12/17 23:35:19;;;;;;;3.63;2.97;;;-8.00;62.90;-9.40;96842.00;;;;5035715;28;20191;-62
2022/12/17 23:37:46;;;;;;;5.57;5.07;;;-8.00;62.60;-9.40;96841.00;;;;5035790;28;20211;-58
2022/12/17 23:40:14;;;;;;;10.00;5.27;;;-7.90;62.40;-9.50;96839.00;;;;5035478;28;20329;-61
2022/12/17 23:42:41;;;;;;;7.97;5.43;;;-8.10;61.70;-9.40;96845.00;;;;5035120;28;20195;-58
2022/12/17 23:45:10;;;;;;;6.93;4.87;;;-8.00;62.00;-9.40;96856.00;;;;5035495;28;20691;-58
2022/12/17 23:47:39;;;;;;;8.40;6.40;;;-8.00;61.80;-9.50;96833.00;;;;5035490;28;20198;-58
2022/12/17 23:50:09;;;;;;;5.97;5.43;;;-8.00;61.30;-9.70;96847.00;;;;5035564;28;20195;-58
2022/12/17 23:52:38;;;;;;;9.47;5.80;;;-8.20;60.50;-9.80;96857.00;;;;5036323;28;20262;-58
2022/12/17 23:55:06;;;;;;;7.00;6.40;;;-8.30;60.30;-9.80;96856.00;;;;5035852;28;20190;-58
2022/12/17 23:57:33;;;;;;;4.80;4.40;;;-8.30;60.50;-9.80;96867.00;;;;5035981;28;20226;-58
